sensor_id;sensor_type;location;lat;lon;timestamp;P1;durP1;ratioP1;P2;durP2;ratioP2
4055;SDS011;2043;52.184;8.690;2023-05-16T00:00:37;15.73;;;9.83;;
4055;SDS011;2043;52.184;8.690;2023-05-16T00:03:04;14.23;;;9.63;;
4055;SDS011;2043;52.184;8.690;2023-05-16T00:05:31;13.10;;;9.10;;
4055;SDS011;2043;52.184;8.690;2023-05-16T00:07:58;14.03;;;8.50;;
4055;SDS011;2043;52.184;8.690;2023-05-16T00:10:25;13.70;;;7.53;;
4055;SDS011;2043;52.184;8.690;2023-05-16T00:12:53;14.23;;;7.00;;
4055;SDS011;2043;52.184;8.690;2023-05-16T00:15:19;13.90;;;7.93;;
4055;SDS011;2043;52.184;8.690;2023-05-16T00:17:47;9.33;;;6.17;;
4055;SDS011;2043;52.184;8.690;2023-05-16T00:20:15;9.90;;;5.73;;
4055;SDS011;2043;52.184;8.690;2023-05-16T00:22:44;14.93;;;5.97;;
4055;SDS011;2043;52.184;8.690;2023-05-16T00:25:11;9.10;;;5.70;;
4055;SDS011;2043;52.184;8.690;2023-05-16T00:27:38;10.33;;;5.83;;
4055;SDS011;2043;52.184;8.690;2023-05-16T00:30:05;10.57;;;5.30;;
4055;SDS011;2043;52.184;8.690;2023-05-16T00:32:32;8.80;;;5.37;;
4055;SDS011;2043;52.184;8.690;2023-05-16T00:34:59;8.23;;;4.93;;
4055;SDS011;2043;52.184;8.690;2023-05-16T00:37:26;8.60;;;4.80;;
4055;SDS011;2043;52.184;8.690;2023-05-16T00:39:53;7.80;;;5.30;;
4055;SDS011;2043;52.184;8.690;2023-05-16T00:42:20;8.80;;;5.47;;
4055;SDS011;2043;52.184;8.690;2023-05-16T00:44:47;14.20;;;5.40;;
4055;SDS011;2043;52.184;8.690;2023-05-16T00:47:14;9.10;;;5.50;;
4055;SDS011;2043;52.184;8.690;2023-05-16T00:49:41;6.10;;;4.13;;
4055;SDS011;2043;52.184;8.690;2023-05-16T00:52:08;10.23;;;4.87;;
4055;SDS011;2043;52.184;8.690;2023-05-16T00:54:35;14.43;;;5.27;;
4055;SDS011;2043;52.184;8.690;2023-05-16T00:57:02;11.40;;;4.90;;
4055;SDS011;2043;52.184;8.690;2023-05-16T00:59:31;10.93;;;5.10;;
4055;SDS011;2043;52.184;8.690;2023-05-16T01:01:58;11.27;;;4.80;;
4055;SDS011;2043;52.184;8.690;2023-05-16T01:04:26;8.23;;;4.80;;
4055;SDS011;2043;52.184;8.690;2023-05-16T01:06:54;8.00;;;4.97;;
4055;SDS011;2043;52.184;8.690;2023-05-16T01:09:22;9.17;;;4.50;;
4055;SDS011;2043;52.184;8.690;2023-05-16T01:11:55;8.07;;;4.80;;
4055;SDS011;2043;52.184;8.690;2023-05-16T01:17:44;8.30;;;4.53;;
4055;SDS011;2043;52.184;8.690;2023-05-16T01:25:55;11.27;;;5.57;;
4055;SDS011;2043;52.184;8.690;2023-05-16T01:28:37;8.30;;;5.40;;
4055;SDS011;2043;52.184;8.690;2023-05-16T01:31:05;9.13;;;5.30;;
4055;SDS011;2043;52.184;8.690;2023-05-16T01:33:32;10.53;;;6.10;;
4055;SDS011;2043;52.184;8.690;2023-05-16T01:36:07;8.37;;;5.80;;
4055;SDS011;2043;52.184;8.690;2023-05-16T01:41:20;7.93;;;5.87;;
4055;SDS011;2043;52.184;8.690;2023-05-16T01:43:57;9.13;;;5.40;;
4055;SDS011;2043;52.184;8.690;2023-05-16T01:46:27;14.70;;;5.50;;
4055;SDS011;2043;52.184;8.690;2023-05-16T01:51:59;8.13;;;4.47;;
4055;SDS011;2043;52.184;8.690;2023-05-16T01:54:31;10.30;;;4.30;;
4055;SDS011;2043;52.184;8.690;2023-05-16T01:57:01;14.20;;;4.10;;
4055;SDS011;2043;52.184;8.690;2023-05-16T01:59:30;7.50;;;4.00;;
4055;SDS011;2043;52.184;8.690;2023-05-16T02:01:58;6.60;;;3.33;;
4055;SDS011;2043;52.184;8.690;2023-05-16T02:04:25;8.00;;;3.83;;
4055;SDS011;2043;52.184;8.690;2023-05-16T02:06:51;9.30;;;3.80;;
4055;SDS011;2043;52.184;8.690;2023-05-16T02:09:18;11.63;;;4.20;;
4055;SDS011;2043;52.184;8.690;2023-05-16T02:11:45;13.60;;;3.60;;
4055;SDS011;2043;52.184;8.690;2023-05-16T02:14:12;8.07;;;3.40;;
4055;SDS011;2043;52.184;8.690;2023-05-16T02:16:39;9.97;;;3.90;;
4055;SDS011;2043;52.184;8.690;2023-05-16T02:19:06;7.97;;;3.07;;
4055;SDS011;2043;52.184;8.690;2023-05-16T02:21:32;6.87;;;3.50;;
4055;SDS011;2043;52.184;8.690;2023-05-16T02:23:59;11.10;;;3.43;;
4055;SDS011;2043;52.184;8.690;2023-05-16T02:26:26;7.60;;;3.20;;
4055;SDS011;2043;52.184;8.690;2023-05-16T02:28:53;12.17;;;3.70;;
4055;SDS011;2043;52.184;8.690;2023-05-16T02:31:27;8.33;;;3.43;;
4055;SDS011;2043;52.184;8.690;2023-05-16T02:33:56;12.00;;;3.13;;
4055;SDS011;2043;52.184;8.690;2023-05-16T02:36:24;12.27;;;4.07;;
4055;SDS011;2043;52.184;8.690;2023-05-16T02:38:51;8.70;;;3.40;;
4055;SDS011;2043;52.184;8.690;2023-05-16T02:41:18;10.83;;;3.70;;
4055;SDS011;2043;52.184;8.690;2023-05-16T02:43:47;11.60;;;3.90;;
4055;SDS011;2043;52.184;8.690;2023-05-16T02:46:24;11.27;;;3.73;;
4055;SDS011;2043;52.184;8.690;2023-05-16T02:48:58;12.87;;;3.50;;
4055;SDS011;2043;52.184;8.690;2023-05-16T02:51:26;10.43;;;3.23;;
4055;SDS011;2043;52.184;8.690;2023-05-16T02:53:53;14.57;;;3.80;;
4055;SDS011;2043;52.184;8.690;2023-05-16T02:56:24;16.30;;;4.07;;
4055;SDS011;2043;52.184;8.690;2023-05-16T02:58:52;11.60;;;3.57;;
4055;SDS011;2043;52.184;8.690;2023-05-16T03:01:20;12.73;;;3.50;;
4055;SDS011;2043;52.184;8.690;2023-05-16T03:03:46;12.23;;;4.30;;
4055;SDS011;2043;52.184;8.690;2023-05-16T03:06:13;12.87;;;3.30;;
4055;SDS011;2043;52.184;8.690;2023-05-16T03:08:40;18.00;;;4.07;;
4055;SDS011;2043;52.184;8.690;2023-05-16T03:11:07;7.80;;;3.10;;
4055;SDS011;2043;52.184;8.690;2023-05-16T03:13:34;13.17;;;3.40;;
4055;SDS011;2043;52.184;8.690;2023-05-16T03:16:00;15.20;;;3.90;;
4055;SDS011;2043;52.184;8.690;2023-05-16T03:18:28;15.37;;;3.80;;
4055;SDS011;2043;52.184;8.690;2023-05-16T03:20:55;17.43;;;3.73;;
4055;SDS011;2043;52.184;8.690;2023-05-16T03:23:22;11.00;;;3.40;;
4055;SDS011;2043;52.184;8.690;2023-05-16T03:25:49;10.87;;;3.13;;
4055;SDS011;2043;52.184;8.690;2023-05-16T03:28:16;16.83;;;4.40;;
4055;SDS011;2043;52.184;8.690;2023-05-16T03:30:44;17.53;;;4.27;;
4055;SDS011;2043;52.184;8.690;2023-05-16T03:33:11;15.37;;;3.90;;
4055;SDS011;2043;52.184;8.690;2023-05-16T03:35:38;19.33;;;3.80;;
4055;SDS011;2043;52.184;8.690;2023-05-16T03:38:05;14.30;;;3.43;;
4055;SDS011;2043;52.184;8.690;2023-05-16T03:40:32;15.70;;;3.63;;
4055;SDS011;2043;52.184;8.690;2023-05-16T03:42:59;13.67;;;3.33;;
4055;SDS011;2043;52.184;8.690;2023-05-16T03:45:26;13.27;;;3.97;;
4055;SDS011;2043;52.184;8.690;2023-05-16T03:47:55;12.50;;;3.83;;
4055;SDS011;2043;52.184;8.690;2023-05-16T03:50:22;19.43;;;3.67;;
4055;SDS011;2043;52.184;8.690;2023-05-16T03:52:49;19.10;;;4.33;;
4055;SDS011;2043;52.184;8.690;2023-05-16T03:55:16;20.60;;;3.73;;
4055;SDS011;2043;52.184;8.690;2023-05-16T03:57:43;20.03;;;4.33;;
4055;SDS011;2043;52.184;8.690;2023-05-16T04:00:10;12.73;;;3.40;;
4055;SDS011;2043;52.184;8.690;2023-05-16T04:02:38;20.70;;;3.37;;
4055;SDS011;2043;52.184;8.690;2023-05-16T04:05:09;15.60;;;3.63;;
4055;SDS011;2043;52.184;8.690;2023-05-16T04:07:37;14.90;;;3.37;;
4055;SDS011;2043;52.184;8.690;2023-05-16T04:10:04;17.00;;;3.50;;
4055;SDS011;2043;52.184;8.690;2023-05-16T04:12:31;30.17;;;4.50;;
4055;SDS011;2043;52.184;8.690;2023-05-16T04:14:58;16.67;;;3.93;;
4055;SDS011;2043;52.184;8.690;2023-05-16T04:17:25;16.67;;;3.63;;
4055;SDS011;2043;52.184;8.690;2023-05-16T04:19:52;21.37;;;3.73;;
4055;SDS011;2043;52.184;8.690;2023-05-16T04:22:20;25.53;;;4.70;;
4055;SDS011;2043;52.184;8.690;2023-05-16T04:24:48;10.87;;;3.50;;
4055;SDS011;2043;52.184;8.690;2023-05-16T04:27:15;25.53;;;4.33;;
4055;SDS011;2043;52.184;8.690;2023-05-16T04:29:42;18.37;;;4.07;;
4055;SDS011;2043;52.184;8.690;2023-05-16T04:32:09;18.57;;;4.30;;
4055;SDS011;2043;52.184;8.690;2023-05-16T04:34:37;26.83;;;6.17;;
4055;SDS011;2043;52.184;8.690;2023-05-16T04:37:06;18.70;;;4.10;;
4055;SDS011;2043;52.184;8.690;2023-05-16T04:39:34;15.90;;;3.90;;
4055;SDS011;2043;52.184;8.690;2023-05-16T04:42:01;18.57;;;4.03;;
4055;SDS011;2043;52.184;8.690;2023-05-16T04:44:29;15.63;;;3.63;;
4055;SDS011;2043;52.184;8.690;2023-05-16T04:46:56;18.00;;;3.80;;
4055;SDS011;2043;52.184;8.690;2023-05-16T04:49:23;13.93;;;3.33;;
4055;SDS011;2043;52.184;8.690;2023-05-16T04:51:49;19.20;;;3.60;;
4055;SDS011;2043;52.184;8.690;2023-05-16T04:54:16;24.40;;;3.93;;
4055;SDS011;2043;52.184;8.690;2023-05-16T04:56:43;13.57;;;2.93;;
4055;SDS011;2043;52.184;8.690;2023-05-16T04:59:10;15.17;;;3.33;;
4055;SDS011;2043;52.184;8.690;2023-05-16T05:01:37;20.00;;;3.70;;
4055;SDS011;2043;52.184;8.690;2023-05-16T05:04:04;23.00;;;3.90;;
4055;SDS011;2043;52.184;8.690;2023-05-16T05:06:31;17.10;;;3.73;;
4055;SDS011;2043;52.184;8.690;2023-05-16T05:08:58;28.70;;;4.00;;
4055;SDS011;2043;52.184;8.690;2023-05-16T05:11:25;14.30;;;3.17;;
4055;SDS011;2043;52.184;8.690;2023-05-16T05:13:52;22.33;;;3.80;;
4055;SDS011;2043;52.184;8.690;2023-05-16T05:16:19;19.50;;;3.63;;
4055;SDS011;2043;52.184;8.690;2023-05-16T05:18:46;18.43;;;3.60;;
4055;SDS011;2043;52.184;8.690;2023-05-16T05:21:13;20.33;;;3.80;;
4055;SDS011;2043;52.184;8.690;2023-05-16T05:23:40;14.50;;;3.60;;
4055;SDS011;2043;52.184;8.690;2023-05-16T05:26:07;25.60;;;3.73;;
4055;SDS011;2043;52.184;8.690;2023-05-16T05:28:33;19.20;;;3.53;;
4055;SDS011;2043;52.184;8.690;2023-05-16T05:31:01;13.90;;;3.30;;
4055;SDS011;2043;52.184;8.690;2023-05-16T05:33:30;20.93;;;3.90;;
4055;SDS011;2043;52.184;8.690;2023-05-16T05:35:57;18.13;;;3.23;;
4055;SDS011;2043;52.184;8.690;2023-05-16T05:38:23;19.10;;;4.00;;
4055;SDS011;2043;52.184;8.690;2023-05-16T05:40:51;16.93;;;3.33;;
4055;SDS011;2043;52.184;8.690;2023-05-16T05:43:18;19.90;;;4.63;;
4055;SDS011;2043;52.184;8.690;2023-05-16T05:45:44;19.67;;;3.40;;
4055;SDS011;2043;52.184;8.690;2023-05-16T05:48:12;22.00;;;3.93;;
4055;SDS011;2043;52.184;8.690;2023-05-16T05:50:39;16.97;;;3.10;;
4055;SDS011;2043;52.184;8.690;2023-05-16T05:53:06;15.77;;;3.03;;
4055;SDS011;2043;52.184;8.690;2023-05-16T05:55:33;20.27;;;3.40;;
4055;SDS011;2043;52.184;8.690;2023-05-16T05:58:00;23.87;;;3.53;;
4055;SDS011;2043;52.184;8.690;2023-05-16T06:00:26;15.03;;;3.50;;
4055;SDS011;2043;52.184;8.690;2023-05-16T06:02:55;16.90;;;3.60;;
4055;SDS011;2043;52.184;8.690;2023-05-16T06:05:22;15.20;;;3.27;;
4055;SDS011;2043;52.184;8.690;2023-05-16T06:07:49;14.40;;;3.00;;
4055;SDS011;2043;52.184;8.690;2023-05-16T06:10:16;21.30;;;3.43;;
4055;SDS011;2043;52.184;8.690;2023-05-16T06:12:42;18.13;;;3.70;;
4055;SDS011;2043;52.184;8.690;2023-05-16T06:15:09;21.13;;;3.33;;
4055;SDS011;2043;52.184;8.690;2023-05-16T06:17:36;18.23;;;3.30;;
4055;SDS011;2043;52.184;8.690;2023-05-16T06:20:04;19.13;;;3.70;;
4055;SDS011;2043;52.184;8.690;2023-05-16T06:22:31;16.07;;;2.83;;
4055;SDS011;2043;52.184;8.690;2023-05-16T06:24:58;15.53;;;3.30;;
4055;SDS011;2043;52.184;8.690;2023-05-16T06:27:25;13.57;;;2.63;;
4055;SDS011;2043;52.184;8.690;2023-05-16T06:29:52;19.90;;;3.23;;
4055;SDS011;2043;52.184;8.690;2023-05-16T06:32:19;14.33;;;3.20;;
4055;SDS011;2043;52.184;8.690;2023-05-16T06:34:47;16.57;;;3.40;;
4055;SDS011;2043;52.184;8.690;2023-05-16T06:37:14;20.07;;;3.00;;
4055;SDS011;2043;52.184;8.690;2023-05-16T06:39:41;23.67;;;3.60;;
4055;SDS011;2043;52.184;8.690;2023-05-16T06:42:08;22.57;;;3.40;;
4055;SDS011;2043;52.184;8.690;2023-05-16T06:44:36;16.77;;;3.20;;
4055;SDS011;2043;52.184;8.690;2023-05-16T06:47:03;21.93;;;3.67;;
4055;SDS011;2043;52.184;8.690;2023-05-16T06:49:30;10.13;;;2.80;;
4055;SDS011;2043;52.184;8.690;2023-05-16T06:51:57;14.57;;;3.10;;
4055;SDS011;2043;52.184;8.690;2023-05-16T06:54:24;14.37;;;2.53;;
4055;SDS011;2043;52.184;8.690;2023-05-16T06:56:51;16.77;;;3.50;;
4055;SDS011;2043;52.184;8.690;2023-05-16T06:59:17;18.53;;;2.90;;
4055;SDS011;2043;52.184;8.690;2023-05-16T07:01:44;19.00;;;3.07;;
4055;SDS011;2043;52.184;8.690;2023-05-16T07:04:11;15.80;;;2.97;;
4055;SDS011;2043;52.184;8.690;2023-05-16T07:06:38;23.73;;;2.93;;
4055;SDS011;2043;52.184;8.690;2023-05-16T07:09:05;18.07;;;2.70;;
4055;SDS011;2043;52.184;8.690;2023-05-16T07:11:32;15.73;;;2.70;;
4055;SDS011;2043;52.184;8.690;2023-05-16T07:13:59;14.93;;;2.80;;
4055;SDS011;2043;52.184;8.690;2023-05-16T07:16:26;15.93;;;3.20;;
4055;SDS011;2043;52.184;8.690;2023-05-16T07:18:53;13.40;;;2.60;;
4055;SDS011;2043;52.184;8.690;2023-05-16T07:21:21;14.00;;;2.50;;
4055;SDS011;2043;52.184;8.690;2023-05-16T07:23:47;25.00;;;3.17;;
4055;SDS011;2043;52.184;8.690;2023-05-16T07:26:14;10.97;;;2.73;;
4055;SDS011;2043;52.184;8.690;2023-05-16T07:28:42;13.00;;;2.77;;
4055;SDS011;2043;52.184;8.690;2023-05-16T07:31:11;17.03;;;2.60;;
4055;SDS011;2043;52.184;8.690;2023-05-16T07:33:38;15.67;;;2.50;;
4055;SDS011;2043;52.184;8.690;2023-05-16T07:36:04;10.50;;;2.13;;
4055;SDS011;2043;52.184;8.690;2023-05-16T07:38:42;13.80;;;2.20;;
4055;SDS011;2043;52.184;8.690;2023-05-16T07:41:09;15.23;;;2.80;;
4055;SDS011;2043;52.184;8.690;2023-05-16T07:43:36;14.73;;;2.50;;
4055;SDS011;2043;52.184;8.690;2023-05-16T07:46:03;20.10;;;2.83;;
4055;SDS011;2043;52.184;8.690;2023-05-16T07:48:30;14.47;;;2.50;;
4055;SDS011;2043;52.184;8.690;2023-05-16T07:50:57;9.50;;;2.50;;
4055;SDS011;2043;52.184;8.690;2023-05-16T07:53:24;9.53;;;2.30;;
4055;SDS011;2043;52.184;8.690;2023-05-16T07:55:51;12.13;;;2.30;;
4055;SDS011;2043;52.184;8.690;2023-05-16T07:58:18;12.17;;;2.53;;
4055;SDS011;2043;52.184;8.690;2023-05-16T08:00:45;8.80;;;2.37;;
4055;SDS011;2043;52.184;8.690;2023-05-16T08:03:12;16.47;;;2.50;;
4055;SDS011;2043;52.184;8.690;2023-05-16T08:05:39;13.67;;;2.87;;
4055;SDS011;2043;52.184;8.690;2023-05-16T08:08:06;10.13;;;2.67;;
4055;SDS011;2043;52.184;8.690;2023-05-16T08:10:33;12.33;;;2.63;;
4055;SDS011;2043;52.184;8.690;2023-05-16T08:12:59;13.70;;;2.80;;
4055;SDS011;2043;52.184;8.690;2023-05-16T08:15:26;11.27;;;2.63;;
4055;SDS011;2043;52.184;8.690;2023-05-16T08:17:55;15.83;;;3.30;;
4055;SDS011;2043;52.184;8.690;2023-05-16T08:20:24;11.40;;;2.60;;
4055;SDS011;2043;52.184;8.690;2023-05-16T08:22:51;11.80;;;2.83;;
4055;SDS011;2043;52.184;8.690;2023-05-16T08:25:18;9.33;;;2.70;;
4055;SDS011;2043;52.184;8.690;2023-05-16T08:27:47;8.47;;;2.30;;
4055;SDS011;2043;52.184;8.690;2023-05-16T08:30:15;9.63;;;2.40;;
4055;SDS011;2043;52.184;8.690;2023-05-16T08:32:42;16.57;;;3.20;;
4055;SDS011;2043;52.184;8.690;2023-05-16T08:35:09;12.93;;;2.30;;
4055;SDS011;2043;52.184;8.690;2023-05-16T08:37:36;12.83;;;2.60;;
4055;SDS011;2043;52.184;8.690;2023-05-16T08:40:04;7.00;;;2.13;;
4055;SDS011;2043;52.184;8.690;2023-05-16T08:42:33;11.50;;;2.00;;
4055;SDS011;2043;52.184;8.690;2023-05-16T08:45:00;10.10;;;2.40;;
4055;SDS011;2043;52.184;8.690;2023-05-16T08:47:29;13.90;;;2.30;;
4055;SDS011;2043;52.184;8.690;2023-05-16T08:49:57;6.93;;;2.30;;
4055;SDS011;2043;52.184;8.690;2023-05-16T08:52:27;12.60;;;2.03;;
4055;SDS011;2043;52.184;8.690;2023-05-16T08:54:56;12.57;;;2.40;;
4055;SDS011;2043;52.184;8.690;2023-05-16T08:57:30;15.70;;;2.40;;
4055;SDS011;2043;52.184;8.690;2023-05-16T08:59:59;13.97;;;2.10;;
4055;SDS011;2043;52.184;8.690;2023-05-16T09:02:29;9.83;;;2.07;;
4055;SDS011;2043;52.184;8.690;2023-05-16T09:04:56;8.33;;;1.87;;
4055;SDS011;2043;52.184;8.690;2023-05-16T09:07:24;10.23;;;2.50;;
4055;SDS011;2043;52.184;8.690;2023-05-16T09:09:51;12.17;;;2.40;;
4055;SDS011;2043;52.184;8.690;2023-05-16T09:12:18;18.20;;;2.37;;
4055;SDS011;2043;52.184;8.690;2023-05-16T09:14:45;9.33;;;1.67;;
4055;SDS011;2043;52.184;8.690;2023-05-16T09:17:12;10.53;;;2.43;;
4055;SDS011;2043;52.184;8.690;2023-05-16T09:19:45;8.47;;;2.30;;
4055;SDS011;2043;52.184;8.690;2023-05-16T09:22:15;17.73;;;2.13;;
4055;SDS011;2043;52.184;8.690;2023-05-16T09:24:43;9.27;;;2.30;;
4055;SDS011;2043;52.184;8.690;2023-05-16T09:27:11;9.80;;;2.13;;
4055;SDS011;2043;52.184;8.690;2023-05-16T09:29:40;9.30;;;2.20;;
4055;SDS011;2043;52.184;8.690;2023-05-16T09:32:14;10.50;;;2.00;;
4055;SDS011;2043;52.184;8.690;2023-05-16T09:34:45;8.53;;;2.17;;
4055;SDS011;2043;52.184;8.690;2023-05-16T09:37:14;14.47;;;2.43;;
4055;SDS011;2043;52.184;8.690;2023-05-16T09:39:45;9.83;;;2.23;;
4055;SDS011;2043;52.184;8.690;2023-05-16T09:42:13;8.80;;;2.37;;
4055;SDS011;2043;52.184;8.690;2023-05-16T09:44:51;10.03;;;2.60;;
4055;SDS011;2043;52.184;8.690;2023-05-16T09:47:20;6.27;;;2.03;;
4055;SDS011;2043;52.184;8.690;2023-05-16T09:49:51;8.47;;;2.10;;
4055;SDS011;2043;52.184;8.690;2023-05-16T09:52:18;13.13;;;2.63;;
4055;SDS011;2043;52.184;8.690;2023-05-16T09:54:46;7.50;;;2.00;;
4055;SDS011;2043;52.184;8.690;2023-05-16T09:57:21;18.10;;;2.20;;
4055;SDS011;2043;52.184;8.690;2023-05-16T09:59:52;10.60;;;2.60;;
4055;SDS011;2043;52.184;8.690;2023-05-16T10:02:19;9.73;;;2.30;;
4055;SDS011;2043;52.184;8.690;2023-05-16T10:04:47;10.70;;;2.53;;
4055;SDS011;2043;52.184;8.690;2023-05-16T10:07:13;7.77;;;1.80;;
4055;SDS011;2043;52.184;8.690;2023-05-16T10:09:42;8.40;;;2.00;;
4055;SDS011;2043;52.184;8.690;2023-05-16T10:12:09;6.20;;;2.00;;
4055;SDS011;2043;52.184;8.690;2023-05-16T10:14:40;7.33;;;1.80;;
4055;SDS011;2043;52.184;8.690;2023-05-16T10:17:09;12.43;;;1.87;;
4055;SDS011;2043;52.184;8.690;2023-05-16T10:19:39;7.07;;;2.13;;
4055;SDS011;2043;52.184;8.690;2023-05-16T10:22:07;7.07;;;1.93;;
4055;SDS011;2043;52.184;8.690;2023-05-16T10:24:46;7.50;;;2.00;;
4055;SDS011;2043;52.184;8.690;2023-05-16T10:27:17;9.70;;;2.10;;
4055;SDS011;2043;52.184;8.690;2023-05-16T10:29:44;12.20;;;2.20;;
4055;SDS011;2043;52.184;8.690;2023-05-16T10:32:20;11.10;;;1.90;;
4055;SDS011;2043;52.184;8.690;2023-05-16T10:34:49;7.60;;;1.90;;
4055;SDS011;2043;52.184;8.690;2023-05-16T10:37:16;11.50;;;2.40;;
4055;SDS011;2043;52.184;8.690;2023-05-16T10:39:43;8.73;;;1.67;;
4055;SDS011;2043;52.184;8.690;2023-05-16T10:42:10;8.90;;;2.00;;
4055;SDS011;2043;52.184;8.690;2023-05-16T10:44:39;20.07;;;2.70;;
4055;SDS011;2043;52.184;8.690;2023-05-16T10:47:17;5.77;;;1.57;;
4055;SDS011;2043;52.184;8.690;2023-05-16T10:49:45;12.80;;;1.97;;
4055;SDS011;2043;52.184;8.690;2023-05-16T10:52:12;8.30;;;1.90;;
4055;SDS011;2043;52.184;8.690;2023-05-16T10:54:41;10.63;;;2.17;;
4055;SDS011;2043;52.184;8.690;2023-05-16T10:57:17;7.73;;;2.00;;
4055;SDS011;2043;52.184;8.690;2023-05-16T10:59:48;5.30;;;1.73;;
4055;SDS011;2043;52.184;8.690;2023-05-16T11:02:26;11.03;;;2.07;;
4055;SDS011;2043;52.184;8.690;2023-05-16T11:05:00;11.50;;;1.93;;
4055;SDS011;2043;52.184;8.690;2023-05-16T11:07:32;9.47;;;2.17;;
4055;SDS011;2043;52.184;8.690;2023-05-16T11:12:44;7.40;;;2.23;;
4055;SDS011;2043;52.184;8.690;2023-05-16T11:15:24;6.90;;;1.90;;
4055;SDS011;2043;52.184;8.690;2023-05-16T11:18:06;9.83;;;1.50;;
4055;SDS011;2043;52.184;8.690;2023-05-16T11:20:34;9.30;;;1.80;;
4055;SDS011;2043;52.184;8.690;2023-05-16T11:25:53;7.43;;;1.93;;
4055;SDS011;2043;52.184;8.690;2023-05-16T11:28:22;13.50;;;2.50;;
4055;SDS011;2043;52.184;8.690;2023-05-16T11:30:56;7.23;;;2.00;;
4055;SDS011;2043;52.184;8.690;2023-05-16T11:33:25;5.40;;;1.60;;
4055;SDS011;2043;52.184;8.690;2023-05-16T11:36:05;8.77;;;1.93;;
4055;SDS011;2043;52.184;8.690;2023-05-16T11:38:41;14.20;;;2.47;;
4055;SDS011;2043;52.184;8.690;2023-05-16T11:41:09;8.50;;;1.80;;
4055;SDS011;2043;52.184;8.690;2023-05-16T11:43:40;8.77;;;1.73;;
4055;SDS011;2043;52.184;8.690;2023-05-16T11:46:11;7.77;;;2.03;;
4055;SDS011;2043;52.184;8.690;2023-05-16T11:48:39;7.10;;;1.97;;
4055;SDS011;2043;52.184;8.690;2023-05-16T11:51:08;8.30;;;2.00;;
4055;SDS011;2043;52.184;8.690;2023-05-16T11:53:35;13.20;;;2.17;;
4055;SDS011;2043;52.184;8.690;2023-05-16T11:56:03;10.27;;;2.30;;
4055;SDS011;2043;52.184;8.690;2023-05-16T11:58:32;8.40;;;2.10;;
4055;SDS011;2043;52.184;8.690;2023-05-16T12:00:59;16.47;;;3.10;;
4055;SDS011;2043;52.184;8.690;2023-05-16T12:03:29;10.10;;;2.50;;
4055;SDS011;2043;52.184;8.690;2023-05-16T12:06:01;8.10;;;1.93;;
4055;SDS011;2043;52.184;8.690;2023-05-16T12:08:28;15.13;;;2.17;;
4055;SDS011;2043;52.184;8.690;2023-05-16T12:10:55;9.50;;;2.50;;
4055;SDS011;2043;52.184;8.690;2023-05-16T12:13:23;4.90;;;1.50;;
4055;SDS011;2043;52.184;8.690;2023-05-16T12:15:51;12.13;;;1.70;;
4055;SDS011;2043;52.184;8.690;2023-05-16T12:18:18;11.10;;;1.70;;
4055;SDS011;2043;52.184;8.690;2023-05-16T12:20:47;7.07;;;2.00;;
4055;SDS011;2043;52.184;8.690;2023-05-16T12:23:14;11.47;;;2.20;;
4055;SDS011;2043;52.184;8.690;2023-05-16T12:25:45;7.20;;;2.07;;
4055;SDS011;2043;52.184;8.690;2023-05-16T12:28:12;9.20;;;1.90;;
4055;SDS011;2043;52.184;8.690;2023-05-16T12:30:41;5.83;;;1.77;;
4055;SDS011;2043;52.184;8.690;2023-05-16T12:33:10;6.60;;;1.70;;
4055;SDS011;2043;52.184;8.690;2023-05-16T12:35:39;15.97;;;2.10;;
4055;SDS011;2043;52.184;8.690;2023-05-16T12:38:11;16.23;;;2.23;;
4055;SDS011;2043;52.184;8.690;2023-05-16T12:40:40;6.07;;;1.93;;
4055;SDS011;2043;52.184;8.690;2023-05-16T12:43:42;6.50;;;1.67;;
4055;SDS011;2043;52.184;8.690;2023-05-16T12:46:01;6.83;;;1.80;;
4055;SDS011;2043;52.184;8.690;2023-05-16T12:48:34;7.90;;;1.80;;
4055;SDS011;2043;52.184;8.690;2023-05-16T12:51:12;6.67;;;1.77;;
4055;SDS011;2043;52.184;8.690;2023-05-16T12:53:44;10.60;;;1.77;;
4055;SDS011;2043;52.184;8.690;2023-05-16T12:56:32;7.60;;;2.10;;
4055;SDS011;2043;52.184;8.690;2023-05-16T12:59:00;6.60;;;1.73;;
4055;SDS011;2043;52.184;8.690;2023-05-16T13:01:27;10.63;;;1.87;;
4055;SDS011;2043;52.184;8.690;2023-05-16T13:03:53;5.47;;;1.60;;
4055;SDS011;2043;52.184;8.690;2023-05-16T13:06:21;7.30;;;1.77;;
4055;SDS011;2043;52.184;8.690;2023-05-16T13:08:47;9.43;;;2.00;;
4055;SDS011;2043;52.184;8.690;2023-05-16T13:11:17;12.43;;;2.67;;
4055;SDS011;2043;52.184;8.690;2023-05-16T13:13:44;6.10;;;2.20;;
4055;SDS011;2043;52.184;8.690;2023-05-16T13:16:11;9.50;;;1.70;;
4055;SDS011;2043;52.184;8.690;2023-05-16T13:18:38;6.40;;;1.80;;
4055;SDS011;2043;52.184;8.690;2023-05-16T13:21:05;9.20;;;2.07;;
4055;SDS011;2043;52.184;8.690;2023-05-16T13:23:32;9.13;;;1.60;;
4055;SDS011;2043;52.184;8.690;2023-05-16T13:25:59;5.30;;;1.37;;
4055;SDS011;2043;52.184;8.690;2023-05-16T13:28:26;8.77;;;1.70;;
4055;SDS011;2043;52.184;8.690;2023-05-16T13:30:52;4.53;;;1.50;;
4055;SDS011;2043;52.184;8.690;2023-05-16T13:33:19;7.70;;;1.60;;
4055;SDS011;2043;52.184;8.690;2023-05-16T13:35:47;6.57;;;1.70;;
4055;SDS011;2043;52.184;8.690;2023-05-16T13:38:14;4.90;;;1.30;;
4055;SDS011;2043;52.184;8.690;2023-05-16T13:40:41;12.63;;;2.13;;
4055;SDS011;2043;52.184;8.690;2023-05-16T13:43:08;8.97;;;1.77;;
4055;SDS011;2043;52.184;8.690;2023-05-16T13:45:35;6.13;;;1.50;;
4055;SDS011;2043;52.184;8.690;2023-05-16T13:48:02;6.67;;;1.77;;
4055;SDS011;2043;52.184;8.690;2023-05-16T13:50:29;7.50;;;2.00;;
4055;SDS011;2043;52.184;8.690;2023-05-16T13:52:59;5.63;;;1.80;;
4055;SDS011;2043;52.184;8.690;2023-05-16T13:55:26;8.60;;;1.80;;
4055;SDS011;2043;52.184;8.690;2023-05-16T13:57:53;6.73;;;1.80;;
4055;SDS011;2043;52.184;8.690;2023-05-16T14:00:20;9.57;;;2.07;;
4055;SDS011;2043;52.184;8.690;2023-05-16T14:02:50;8.30;;;1.70;;
4055;SDS011;2043;52.184;8.690;2023-05-16T14:05:18;8.67;;;1.80;;
4055;SDS011;2043;52.184;8.690;2023-05-16T14:07:45;6.10;;;1.57;;
4055;SDS011;2043;52.184;8.690;2023-05-16T14:10:12;7.93;;;1.60;;
4055;SDS011;2043;52.184;8.690;2023-05-16T14:12:39;8.33;;;1.70;;
4055;SDS011;2043;52.184;8.690;2023-05-16T14:15:06;15.83;;;1.60;;
4055;SDS011;2043;52.184;8.690;2023-05-16T14:17:33;6.17;;;1.70;;
4055;SDS011;2043;52.184;8.690;2023-05-16T14:20:00;6.80;;;1.77;;
4055;SDS011;2043;52.184;8.690;2023-05-16T14:22:27;6.97;;;1.90;;
4055;SDS011;2043;52.184;8.690;2023-05-16T14:24:54;4.70;;;1.70;;
4055;SDS011;2043;52.184;8.690;2023-05-16T14:27:21;14.53;;;1.87;;
4055;SDS011;2043;52.184;8.690;2023-05-16T14:29:48;6.37;;;1.70;;
4055;SDS011;2043;52.184;8.690;2023-05-16T14:32:15;21.53;;;1.87;;
4055;SDS011;2043;52.184;8.690;2023-05-16T14:34:42;9.33;;;1.67;;
4055;SDS011;2043;52.184;8.690;2023-05-16T14:37:09;7.40;;;1.47;;
4055;SDS011;2043;52.184;8.690;2023-05-16T14:39:36;4.83;;;1.50;;
4055;SDS011;2043;52.184;8.690;2023-05-16T14:42:03;6.03;;;1.93;;
4055;SDS011;2043;52.184;8.690;2023-05-16T14:44:33;6.77;;;1.90;;
4055;SDS011;2043;52.184;8.690;2023-05-16T14:47:01;5.53;;;1.40;;
4055;SDS011;2043;52.184;8.690;2023-05-16T14:49:29;5.90;;;1.73;;
4055;SDS011;2043;52.184;8.690;2023-05-16T14:51:56;6.87;;;1.63;;
4055;SDS011;2043;52.184;8.690;2023-05-16T14:54:23;4.93;;;1.60;;
4055;SDS011;2043;52.184;8.690;2023-05-16T14:56:50;5.30;;;1.50;;
4055;SDS011;2043;52.184;8.690;2023-05-16T14:59:17;5.03;;;1.63;;
4055;SDS011;2043;52.184;8.690;2023-05-16T15:01:44;4.73;;;1.33;;
4055;SDS011;2043;52.184;8.690;2023-05-16T15:04:11;10.03;;;1.60;;
4055;SDS011;2043;52.184;8.690;2023-05-16T15:06:38;8.37;;;1.80;;
4055;SDS011;2043;52.184;8.690;2023-05-16T15:09:04;5.80;;;1.57;;
4055;SDS011;2043;52.184;8.690;2023-05-16T15:11:31;10.70;;;1.80;;
4055;SDS011;2043;52.184;8.690;2023-05-16T15:13:58;9.23;;;2.07;;
4055;SDS011;2043;52.184;8.690;2023-05-16T15:16:25;5.50;;;1.60;;
4055;SDS011;2043;52.184;8.690;2023-05-16T15:18:52;4.43;;;1.23;;
4055;SDS011;2043;52.184;8.690;2023-05-16T15:21:19;4.30;;;1.50;;
4055;SDS011;2043;52.184;8.690;2023-05-16T15:23:46;4.67;;;1.27;;
4055;SDS011;2043;52.184;8.690;2023-05-16T15:26:18;9.23;;;1.93;;
4055;SDS011;2043;52.184;8.690;2023-05-16T15:28:44;7.00;;;1.90;;
4055;SDS011;2043;52.184;8.690;2023-05-16T15:31:11;7.23;;;1.83;;
4055;SDS011;2043;52.184;8.690;2023-05-16T15:33:38;11.00;;;2.17;;